Historique des mesures à Cassis (13260), France
Quotidien Résumé Juin 16, 2021 Unités:  US    Métrique   Métrique/US
Quotidien Hebdomadaire Mensuel Annuel
  Maximum: Minimum: Moyenne:
Température: 69.6 °F 55.9 °F 61.3 °F
Point de rosée: 56.7 °F 48.6 °F 52.5 °F
Humidité: 81% 62% 73%
Vitesse du vent: 7mph 0mph 2.5mph
Rafales: 10.7mph - -
Vent- - WNW
Pression: 30 in 29.9 in -
Précipitations: 0 in    
Historical Graphs
 
 
Mesures pour : Juin 16, 2021
Heure Temperature Point de rosée Pression Vent Vitesse du vent Rafales Humidité Pluie (par heure)
00:11 57.9 °F 49.6 °F 29.9 in NNW 6.5 mph 7.6 mph 74% 0 in
01:11 56.5 °F 48.9 °F 29.9 in NNW 5.8 mph 6.5 mph 76% 0 in
02:11 57 °F 49.1 °F 29.9 in NW 7 mph 7 mph 75% 0 in
03:11 56.8 °F 48.6 °F 29.9 in NW 4.7 mph 10.7 mph 74% 0 in
04:11 56.5 °F 48.9 °F 29.9 in NNW 1.6 mph 5.6 mph 76% 0 in
05:11 56.5 °F 49.3 °F 29.9 in WNW 4.7 mph 8.5 mph 77% 0 in
06:11 56.7 °F 49.8 °F 29.9 in Calm   5.2 mph 78% 0 in
07:11 55.9 °F 49.5 °F 29.9 in NW 2.5 mph 6.3 mph 79% 0 in
08:11 56.3 °F 49.8 °F 29.9 in NNW 1.4 mph 3.6 mph 79% 0 in
09:11 57.9 °F 51.1 °F 30 in NNW 5.8 mph 8.9 mph 78% 0 in
10:11 60.4 °F 52.5 °F 30 in WNW 2 mph 5.2 mph 75% 0 in
11:11 63.3 °F 54.1 °F 30 in Calm   1.4 mph 72% 0 in
12:11 65.1 °F 55.2 °F 30 in Calm   3.4 mph 70% 0 in
13:12 67.6 °F 56.7 °F 30 in South 2.2 mph 7.6 mph 68% 0 in
14:11 68.5 °F 56.3 °F 30 in SSE 2 mph 6.5 mph 65% 0 in
15:11 69.4 °F 56.7 °F 30 in ESE 1.1 mph 6 mph 64% 0 in
16:11 69.6 °F 56.1 °F 30 in Calm   3.8 mph 62% 0 in
17:11 68.7 °F 55.6 °F 30 in South 1.6 mph 4.2 mph 63% 0 in
18:11 67.5 °F 55.2 °F 30 in Calm     65% 0 in
19:11 64.6 °F 54.7 °F 30 in Calm     70% 0 in
20:11 61.5 °F 53.6 °F 30 in NW 2.9 mph 3.6 mph 75% 0 in
21:11 59.9 °F 53.1 °F 30 in WNW 3.1 mph 9.4 mph 78% 0 in
22:11 59 °F 52.5 °F 30 in NW 1.6 mph 3.6 mph 79% 0 in
23:11 58.3 °F 52.5 °F 30 in WNW 4.2 mph 7 mph 81% 0 in
Observations météo à CASSIS
WU-History script by Weather Underground - 2 mb